sensor_id;sensor_type;location;lat;lon;timestamp;temperature;humidity
17988;DHT22;9119;50.932;5.342;2022-09-09T00:01:54;16.90;99.90
17988;DHT22;9119;50.932;5.342;2022-09-09T00:07:18;16.80;99.90
17988;DHT22;9119;50.932;5.342;2022-09-09T00:09:50;16.80;99.90
17988;DHT22;9119;50.932;5.342;2022-09-09T00:12:34;16.80;99.90
17988;DHT22;9119;50.932;5.342;2022-09-09T00:15:20;16.70;99.90
17988;DHT22;9119;50.932;5.342;2022-09-09T00:18:01;16.70;99.90
17988;DHT22;9119;50.932;5.342;2022-09-09T00:23:34;16.60;99.90
17988;DHT22;9119;50.932;5.342;2022-09-09T00:31:37;16.60;99.90
17988;DHT22;9119;50.932;5.342;2022-09-09T00:34:16;16.60;99.90
17988;DHT22;9119;50.932;5.342;2022-09-09T00:36:43;16.50;99.90
17988;DHT22;9119;50.932;5.342;2022-09-09T00:39:32;16.50;99.90
17988;DHT22;9119;50.932;5.342;2022-09-09T00:44:36;16.50;99.90
17988;DHT22;9119;50.932;5.342;2022-09-09T00:47:34;16.50;99.90
17988;DHT22;9119;50.932;5.342;2022-09-09T00:50:48;16.60;99.90
17988;DHT22;9119;50.932;5.342;2022-09-09T00:55:58;16.60;99.90
17988;DHT22;9119;50.932;5.342;2022-09-09T00:58:26;16.50;99.90
17988;DHT22;9119;50.932;5.342;2022-09-09T01:01:09;16.70;99.90
17988;DHT22;9119;50.932;5.342;2022-09-09T01:03:53;16.60;99.90
17988;DHT22;9119;50.932;5.342;2022-09-09T01:06:32;16.50;99.90
17988;DHT22;9119;50.932;5.342;2022-09-09T01:09:27;16.50;99.90
17988;DHT22;9119;50.932;5.342;2022-09-09T01:17:25;16.40;99.90
17988;DHT22;9119;50.932;5.342;2022-09-09T01:28:13;16.30;99.90
17988;DHT22;9119;50.932;5.342;2022-09-09T01:30:41;16.40;99.90
17988;DHT22;9119;50.932;5.342;2022-09-09T01:33:12;16.20;99.90
17988;DHT22;9119;50.932;5.342;2022-09-09T01:35:57;16.20;99.90
17988;DHT22;9119;50.932;5.342;2022-09-09T01:38:26;16.20;99.90
17988;DHT22;9119;50.932;5.342;2022-09-09T01:40:53;16.10;99.90
17988;DHT22;9119;50.932;5.342;2022-09-09T01:43:24;16.10;99.90
17988;DHT22;9119;50.932;5.342;2022-09-09T01:45:53;16.10;99.90
17988;DHT22;9119;50.932;5.342;2022-09-09T01:48:21;16.00;99.90
17988;DHT22;9119;50.932;5.342;2022-09-09T01:50:47;16.00;99.90
17988;DHT22;9119;50.932;5.342;2022-09-09T01:53:14;16.00;99.90
17988;DHT22;9119;50.932;5.342;2022-09-09T01:55:58;16.00;99.90
17988;DHT22;9119;50.932;5.342;2022-09-09T01:59:28;16.10;99.90
17988;DHT22;9119;50.932;5.342;2022-09-09T02:04:13;16.10;99.90
17988;DHT22;9119;50.932;5.342;2022-09-09T02:06:44;16.20;99.90
17988;DHT22;9119;50.932;5.342;2022-09-09T02:09:12;16.10;99.90
17988;DHT22;9119;50.932;5.342;2022-09-09T02:11:38;16.20;99.90
17988;DHT22;9119;50.932;5.342;2022-09-09T02:14:14;16.50;99.90
17988;DHT22;9119;50.932;5.342;2022-09-09T02:16:48;16.20;99.90
17988;DHT22;9119;50.932;5.342;2022-09-09T02:19:26;16.20;99.90
17988;DHT22;9119;50.932;5.342;2022-09-09T02:21:55;16.40;99.90
17988;DHT22;9119;50.932;5.342;2022-09-09T02:24:22;16.40;99.90
17988;DHT22;9119;50.932;5.342;2022-09-09T02:26:50;16.20;99.90
17988;DHT22;9119;50.932;5.342;2022-09-09T02:29:33;16.20;99.90
17988;DHT22;9119;50.932;5.342;2022-09-09T02:32:03;16.20;99.90
17988;DHT22;9119;50.932;5.342;2022-09-09T02:34:33;16.10;99.90
17988;DHT22;9119;50.932;5.342;2022-09-09T02:37:01;16.10;99.90
17988;DHT22;9119;50.932;5.342;2022-09-09T02:39:27;16.10;99.90
17988;DHT22;9119;50.932;5.342;2022-09-09T02:41:53;16.40;99.90
17988;DHT22;9119;50.932;5.342;2022-09-09T02:44:19;16.20;99.90
17988;DHT22;9119;50.932;5.342;2022-09-09T02:47:10;16.30;99.90
17988;DHT22;9119;50.932;5.342;2022-09-09T02:50:02;16.40;99.90
17988;DHT22;9119;50.932;5.342;2022-09-09T02:55:05;16.40;99.90
17988;DHT22;9119;50.932;5.342;2022-09-09T02:57:33;16.40;99.90
17988;DHT22;9119;50.932;5.342;2022-09-09T03:00:00;16.40;99.90
17988;DHT22;9119;50.932;5.342;2022-09-09T03:02:26;16.30;99.90
17988;DHT22;9119;50.932;5.342;2022-09-09T03:04:52;16.20;99.90
17988;DHT22;9119;50.932;5.342;2022-09-09T03:07:19;16.30;99.90
17988;DHT22;9119;50.932;5.342;2022-09-09T03:09:45;16.30;99.90
17988;DHT22;9119;50.932;5.342;2022-09-09T03:12:11;16.30;99.90
17988;DHT22;9119;50.932;5.342;2022-09-09T03:14:40;16.20;99.90
17988;DHT22;9119;50.932;5.342;2022-09-09T03:17:06;16.30;99.90
17988;DHT22;9119;50.932;5.342;2022-09-09T03:19:31;16.30;99.90
17988;DHT22;9119;50.932;5.342;2022-09-09T03:21:58;16.40;99.90
17988;DHT22;9119;50.932;5.342;2022-09-09T03:24:24;16.20;99.90
17988;DHT22;9119;50.932;5.342;2022-09-09T03:26:50;16.40;99.90
17988;DHT22;9119;50.932;5.342;2022-09-09T03:29:16;16.40;99.90
17988;DHT22;9119;50.932;5.342;2022-09-09T03:31:43;16.40;99.90
17988;DHT22;9119;50.932;5.342;2022-09-09T03:34:09;16.40;99.90
17988;DHT22;9119;50.932;5.342;2022-09-09T03:36:35;16.40;99.90
17988;DHT22;9119;50.932;5.342;2022-09-09T03:39:02;16.30;99.90
17988;DHT22;9119;50.932;5.342;2022-09-09T03:41:29;16.30;99.90
17988;DHT22;9119;50.932;5.342;2022-09-09T03:43:55;16.50;99.90
17988;DHT22;9119;50.932;5.342;2022-09-09T03:46:22;16.50;99.90
17988;DHT22;9119;50.932;5.342;2022-09-09T03:48:49;16.50;99.90
17988;DHT22;9119;50.932;5.342;2022-09-09T03:51:14;16.60;99.90
17988;DHT22;9119;50.932;5.342;2022-09-09T03:53:41;16.70;99.90
17988;DHT22;9119;50.932;5.342;2022-09-09T03:56:07;16.60;99.90
17988;DHT22;9119;50.932;5.342;2022-09-09T03:58:33;16.50;99.90
17988;DHT22;9119;50.932;5.342;2022-09-09T04:01:10;16.50;99.90
17988;DHT22;9119;50.932;5.342;2022-09-09T04:03:39;16.50;99.90
17988;DHT22;9119;50.932;5.342;2022-09-09T04:06:06;16.50;99.90
17988;DHT22;9119;50.932;5.342;2022-09-09T04:08:33;16.40;99.90
17988;DHT22;9119;50.932;5.342;2022-09-09T04:10:59;16.40;99.90
17988;DHT22;9119;50.932;5.342;2022-09-09T04:13:27;16.40;99.90
17988;DHT22;9119;50.932;5.342;2022-09-09T04:15:58;16.40;99.90
17988;DHT22;9119;50.932;5.342;2022-09-09T04:18:25;16.50;99.90
17988;DHT22;9119;50.932;5.342;2022-09-09T04:20:52;16.30;99.90
17988;DHT22;9119;50.932;5.342;2022-09-09T04:23:19;16.30;99.90
17988;DHT22;9119;50.932;5.342;2022-09-09T04:25:50;16.30;99.90
17988;DHT22;9119;50.932;5.342;2022-09-09T04:28:17;16.30;99.90
17988;DHT22;9119;50.932;5.342;2022-09-09T04:30:44;16.40;99.90
17988;DHT22;9119;50.932;5.342;2022-09-09T04:33:11;16.40;99.90
17988;DHT22;9119;50.932;5.342;2022-09-09T04:35:37;16.60;99.90
17988;DHT22;9119;50.932;5.342;2022-09-09T04:38:04;16.40;99.90
17988;DHT22;9119;50.932;5.342;2022-09-09T04:40:30;16.40;99.90
17988;DHT22;9119;50.932;5.342;2022-09-09T04:42:59;16.30;99.90
17988;DHT22;9119;50.932;5.342;2022-09-09T04:45:25;16.30;99.90
17988;DHT22;9119;50.932;5.342;2022-09-09T04:47:52;16.30;99.90
17988;DHT22;9119;50.932;5.342;2022-09-09T04:50:18;16.40;99.90
17988;DHT22;9119;50.932;5.342;2022-09-09T04:52:44;16.50;99.90
17988;DHT22;9119;50.932;5.342;2022-09-09T04:55:10;16.30;99.90
17988;DHT22;9119;50.932;5.342;2022-09-09T04:57:36;16.30;99.90
17988;DHT22;9119;50.932;5.342;2022-09-09T05:00:02;16.30;99.90
17988;DHT22;9119;50.932;5.342;2022-09-09T05:02:28;16.20;99.90
17988;DHT22;9119;50.932;5.342;2022-09-09T05:04:55;16.40;99.90
17988;DHT22;9119;50.932;5.342;2022-09-09T05:07:22;16.20;99.90
17988;DHT22;9119;50.932;5.342;2022-09-09T05:09:47;16.20;99.90
17988;DHT22;9119;50.932;5.342;2022-09-09T05:12:15;16.20;99.90
17988;DHT22;9119;50.932;5.342;2022-09-09T05:14:42;16.30;99.90
17988;DHT22;9119;50.932;5.342;2022-09-09T05:17:08;16.20;99.90
17988;DHT22;9119;50.932;5.342;2022-09-09T05:19:34;16.20;99.90
17988;DHT22;9119;50.932;5.342;2022-09-09T05:22:00;16.10;99.90
17988;DHT22;9119;50.932;5.342;2022-09-09T05:24:26;16.10;99.90
17988;DHT22;9119;50.932;5.342;2022-09-09T05:26:52;16.30;99.90
17988;DHT22;9119;50.932;5.342;2022-09-09T05:29:17;16.00;99.90
17988;DHT22;9119;50.932;5.342;2022-09-09T05:31:45;16.10;99.90
17988;DHT22;9119;50.932;5.342;2022-09-09T05:34:12;16.10;99.90
17988;DHT22;9119;50.932;5.342;2022-09-09T05:36:38;16.20;99.90
17988;DHT22;9119;50.932;5.342;2022-09-09T05:39:04;16.40;99.90
17988;DHT22;9119;50.932;5.342;2022-09-09T05:41:29;16.30;99.90
17988;DHT22;9119;50.932;5.342;2022-09-09T05:43:55;16.20;99.90
17988;DHT22;9119;50.932;5.342;2022-09-09T05:46:23;16.30;99.90
17988;DHT22;9119;50.932;5.342;2022-09-09T05:48:51;16.30;99.90
17988;DHT22;9119;50.932;5.342;2022-09-09T05:51:27;16.50;99.90
17988;DHT22;9119;50.932;5.342;2022-09-09T05:53:55;16.60;99.90
17988;DHT22;9119;50.932;5.342;2022-09-09T05:56:25;16.80;99.90
17988;DHT22;9119;50.932;5.342;2022-09-09T05:58:52;16.70;99.90
17988;DHT22;9119;50.932;5.342;2022-09-09T06:01:20;16.60;99.90
17988;DHT22;9119;50.932;5.342;2022-09-09T06:03:47;16.60;99.90
17988;DHT22;9119;50.932;5.342;2022-09-09T06:06:15;16.50;99.90
17988;DHT22;9119;50.932;5.342;2022-09-09T06:08:43;16.50;99.90
17988;DHT22;9119;50.932;5.342;2022-09-09T06:11:20;16.80;99.90
17988;DHT22;9119;50.932;5.342;2022-09-09T06:13:47;16.70;99.90
17988;DHT22;9119;50.932;5.342;2022-09-09T06:16:18;16.70;99.90
17988;DHT22;9119;50.932;5.342;2022-09-09T06:18:44;16.70;99.90
17988;DHT22;9119;50.932;5.342;2022-09-09T06:21:21;16.80;99.90
17988;DHT22;9119;50.932;5.342;2022-09-09T06:23:47;16.80;99.90
17988;DHT22;9119;50.932;5.342;2022-09-09T06:28:44;16.70;99.90
17988;DHT22;9119;50.932;5.342;2022-09-09T06:31:12;16.70;99.90
17988;DHT22;9119;50.932;5.342;2022-09-09T06:33:40;16.80;99.90
17988;DHT22;9119;50.932;5.342;2022-09-09T06:36:14;16.90;99.90
17988;DHT22;9119;50.932;5.342;2022-09-09T06:38:41;16.90;99.90
17988;DHT22;9119;50.932;5.342;2022-09-09T06:41:08;17.00;99.90
17988;DHT22;9119;50.932;5.342;2022-09-09T06:43:34;17.00;99.90
17988;DHT22;9119;50.932;5.342;2022-09-09T06:46:08;17.20;99.90
17988;DHT22;9119;50.932;5.342;2022-09-09T06:48:34;17.20;99.90
17988;DHT22;9119;50.932;5.342;2022-09-09T06:53:30;17.30;99.90
17988;DHT22;9119;50.932;5.342;2022-09-09T06:55:59;17.30;99.90
17988;DHT22;9119;50.932;5.342;2022-09-09T06:58:26;17.50;99.90
17988;DHT22;9119;50.932;5.342;2022-09-09T07:00:52;17.70;99.90
17988;DHT22;9119;50.932;5.342;2022-09-09T07:03:18;17.80;99.90
17988;DHT22;9119;50.932;5.342;2022-09-09T07:05:53;18.10;99.90
17988;DHT22;9119;50.932;5.342;2022-09-09T07:08:21;17.90;99.90
17988;DHT22;9119;50.932;5.342;2022-09-09T07:10:47;17.80;99.90
17988;DHT22;9119;50.932;5.342;2022-09-09T07:13:13;17.80;99.90
17988;DHT22;9119;50.932;5.342;2022-09-09T07:15:41;17.90;99.90
17988;DHT22;9119;50.932;5.342;2022-09-09T07:18:07;18.00;99.90
17988;DHT22;9119;50.932;5.342;2022-09-09T07:20:35;17.90;99.90
17988;DHT22;9119;50.932;5.342;2022-09-09T07:23:01;17.70;99.90
17988;DHT22;9119;50.932;5.342;2022-09-09T07:25:29;17.70;99.90
17988;DHT22;9119;50.932;5.342;2022-09-09T07:27:56;17.80;99.90
17988;DHT22;9119;50.932;5.342;2022-09-09T07:30:21;18.00;99.90
17988;DHT22;9119;50.932;5.342;2022-09-09T07:32:51;17.90;99.90
17988;DHT22;9119;50.932;5.342;2022-09-09T07:35:17;18.00;99.90
17988;DHT22;9119;50.932;5.342;2022-09-09T07:37:43;17.80;99.90
17988;DHT22;9119;50.932;5.342;2022-09-09T07:40:10;17.80;99.90
17988;DHT22;9119;50.932;5.342;2022-09-09T07:42:35;17.90;99.90
17988;DHT22;9119;50.932;5.342;2022-09-09T07:45:03;18.00;99.90
17988;DHT22;9119;50.932;5.342;2022-09-09T07:47:29;18.00;99.90
17988;DHT22;9119;50.932;5.342;2022-09-09T07:49:55;18.00;99.90
17988;DHT22;9119;50.932;5.342;2022-09-09T07:52:24;18.10;99.90
17988;DHT22;9119;50.932;5.342;2022-09-09T07:54:49;18.20;99.90
17988;DHT22;9119;50.932;5.342;2022-09-09T07:57:15;18.40;99.90
17988;DHT22;9119;50.932;5.342;2022-09-09T07:59:42;18.30;99.90
17988;DHT22;9119;50.932;5.342;2022-09-09T08:02:09;18.20;99.90
17988;DHT22;9119;50.932;5.342;2022-09-09T08:04:34;18.00;99.90
17988;DHT22;9119;50.932;5.342;2022-09-09T08:07:01;18.10;99.90
17988;DHT22;9119;50.932;5.342;2022-09-09T08:09:29;18.00;99.90
17988;DHT22;9119;50.932;5.342;2022-09-09T08:11:55;18.10;99.90
17988;DHT22;9119;50.932;5.342;2022-09-09T08:14:27;18.20;99.90
17988;DHT22;9119;50.932;5.342;2022-09-09T08:16:53;18.20;99.90
17988;DHT22;9119;50.932;5.342;2022-09-09T08:19:19;18.20;99.90
17988;DHT22;9119;50.932;5.342;2022-09-09T08:21:45;18.00;99.90
17988;DHT22;9119;50.932;5.342;2022-09-09T08:24:12;17.80;99.90
17988;DHT22;9119;50.932;5.342;2022-09-09T08:26:41;17.70;99.90
17988;DHT22;9119;50.932;5.342;2022-09-09T08:29:08;17.70;99.90
17988;DHT22;9119;50.932;5.342;2022-09-09T08:31:46;17.80;99.90
17988;DHT22;9119;50.932;5.342;2022-09-09T08:34:12;17.90;99.90
17988;DHT22;9119;50.932;5.342;2022-09-09T08:36:40;17.90;99.90
17988;DHT22;9119;50.932;5.342;2022-09-09T08:39:11;18.00;99.90
17988;DHT22;9119;50.932;5.342;2022-09-09T08:47:25;17.80;99.90
17988;DHT22;9119;50.932;5.342;2022-09-09T08:50:30;17.70;99.90
17988;DHT22;9119;50.932;5.342;2022-09-09T08:55:53;17.70;99.90
17988;DHT22;9119;50.932;5.342;2022-09-09T08:58:21;17.70;99.90
17988;DHT22;9119;50.932;5.342;2022-09-09T09:06:04;17.80;99.90
17988;DHT22;9119;50.932;5.342;2022-09-09T09:08:50;17.80;99.90
17988;DHT22;9119;50.932;5.342;2022-09-09T09:11:18;17.70;99.90
17988;DHT22;9119;50.932;5.342;2022-09-09T09:13:53;17.90;99.90
17988;DHT22;9119;50.932;5.342;2022-09-09T09:17:10;18.10;99.90
17988;DHT22;9119;50.932;5.342;2022-09-09T09:19:13;18.00;99.90
17988;DHT22;9119;50.932;5.342;2022-09-09T09:22:26;18.00;99.90
17988;DHT22;9119;50.932;5.342;2022-09-09T09:25:19;18.00;99.90
17988;DHT22;9119;50.932;5.342;2022-09-09T09:30:17;17.90;99.90
17988;DHT22;9119;50.932;5.342;2022-09-09T09:35:20;18.20;99.90
17988;DHT22;9119;50.932;5.342;2022-09-09T09:37:46;18.30;99.90
17988;DHT22;9119;50.932;5.342;2022-09-09T09:40:20;18.50;99.90
17988;DHT22;9119;50.932;5.342;2022-09-09T09:42:55;18.60;99.90
17988;DHT22;9119;50.932;5.342;2022-09-09T09:48:19;18.60;99.90
17988;DHT22;9119;50.932;5.342;2022-09-09T09:53:27;18.60;99.90
17988;DHT22;9119;50.932;5.342;2022-09-09T09:58:27;18.50;99.90
17988;DHT22;9119;50.932;5.342;2022-09-09T10:00:56;18.50;99.90
17988;DHT22;9119;50.932;5.342;2022-09-09T10:03:34;18.50;99.90
17988;DHT22;9119;50.932;5.342;2022-09-09T10:06:03;18.60;99.90
17988;DHT22;9119;50.932;5.342;2022-09-09T10:08:29;18.40;99.90
17988;DHT22;9119;50.932;5.342;2022-09-09T10:19:27;18.40;99.90
17988;DHT22;9119;50.932;5.342;2022-09-09T10:24:34;18.40;99.90
17988;DHT22;9119;50.932;5.342;2022-09-09T10:27:20;18.20;99.90
17988;DHT22;9119;50.932;5.342;2022-09-09T10:40:33;17.60;99.90
17988;DHT22;9119;50.932;5.342;2022-09-09T10:46:10;17.50;99.90
17988;DHT22;9119;50.932;5.342;2022-09-09T10:48:52;17.40;99.90
17988;DHT22;9119;50.932;5.342;2022-09-09T10:51:40;17.40;99.90
17988;DHT22;9119;50.932;5.342;2022-09-09T10:54:32;17.50;99.90
17988;DHT22;9119;50.932;5.342;2022-09-09T10:57:17;17.60;99.90
17988;DHT22;9119;50.932;5.342;2022-09-09T10:59:50;17.80;99.90
17988;DHT22;9119;50.932;5.342;2022-09-09T11:02:31;17.80;99.90
17988;DHT22;9119;50.932;5.342;2022-09-09T11:07:42;17.90;99.90
17988;DHT22;9119;50.932;5.342;2022-09-09T11:13:24;17.90;99.90
17988;DHT22;9119;50.932;5.342;2022-09-09T11:16:00;17.90;99.90
17988;DHT22;9119;50.932;5.342;2022-09-09T11:18:29;18.10;99.90
17988;DHT22;9119;50.932;5.342;2022-09-09T11:21:00;18.20;99.90
17988;DHT22;9119;50.932;5.342;2022-09-09T11:23:46;18.30;99.90
17988;DHT22;9119;50.932;5.342;2022-09-09T11:26:21;18.40;99.90
17988;DHT22;9119;50.932;5.342;2022-09-09T11:35:07;18.90;99.90
17988;DHT22;9119;50.932;5.342;2022-09-09T11:37:56;19.10;99.90
17988;DHT22;9119;50.932;5.342;2022-09-09T11:40:25;19.00;99.90
17988;DHT22;9119;50.932;5.342;2022-09-09T11:43:11;19.10;99.90
17988;DHT22;9119;50.932;5.342;2022-09-09T11:45:39;19.20;99.90
17988;DHT22;9119;50.932;5.342;2022-09-09T11:48:43;19.10;99.90
17988;DHT22;9119;50.932;5.342;2022-09-09T11:51:24;19.00;99.90
17988;DHT22;9119;50.932;5.342;2022-09-09T11:55:11;19.20;99.90
17988;DHT22;9119;50.932;5.342;2022-09-09T11:57:37;19.20;99.90
17988;DHT22;9119;50.932;5.342;2022-09-09T12:00:04;19.00;99.90
17988;DHT22;9119;50.932;5.342;2022-09-09T12:02:31;19.00;99.90
17988;DHT22;9119;50.932;5.342;2022-09-09T12:10:24;18.70;99.90
17988;DHT22;9119;50.932;5.342;2022-09-09T12:12:51;18.70;99.90
17988;DHT22;9119;50.932;5.342;2022-09-09T12:15:25;18.70;99.90
17988;DHT22;9119;50.932;5.342;2022-09-09T12:17:55;18.70;99.90
17988;DHT22;9119;50.932;5.342;2022-09-09T12:21:04;18.70;99.90
17988;DHT22;9119;50.932;5.342;2022-09-09T12:23:49;18.40;99.90
17988;DHT22;9119;50.932;5.342;2022-09-09T12:26:32;18.10;99.90
17988;DHT22;9119;50.932;5.342;2022-09-09T12:37:05;18.10;99.90
17988;DHT22;9119;50.932;5.342;2022-09-09T12:39:36;18.30;99.90
17988;DHT22;9119;50.932;5.342;2022-09-09T12:42:03;18.60;99.90
17988;DHT22;9119;50.932;5.342;2022-09-09T12:44:29;18.60;99.90
17988;DHT22;9119;50.932;5.342;2022-09-09T12:46:58;18.80;99.90
17988;DHT22;9119;50.932;5.342;2022-09-09T12:49:32;18.80;99.90
17988;DHT22;9119;50.932;5.342;2022-09-09T12:52:03;18.70;99.90
17988;DHT22;9119;50.932;5.342;2022-09-09T12:54:32;18.80;99.90
17988;DHT22;9119;50.932;5.342;2022-09-09T12:56:58;18.80;99.90
17988;DHT22;9119;50.932;5.342;2022-09-09T12:59:26;18.90;99.90
17988;DHT22;9119;50.932;5.342;2022-09-09T13:01:59;19.10;99.90
17988;DHT22;9119;50.932;5.342;2022-09-09T13:04:25;19.40;99.90
17988;DHT22;9119;50.932;5.342;2022-09-09T13:06:51;19.70;99.90
17988;DHT22;9119;50.932;5.342;2022-09-09T13:09:20;19.90;99.90
17988;DHT22;9119;50.932;5.342;2022-09-09T13:11:50;19.90;99.90
17988;DHT22;9119;50.932;5.342;2022-09-09T13:14:31;20.10;99.90
17988;DHT22;9119;50.932;5.342;2022-09-09T13:17:02;20.20;99.90
17988;DHT22;9119;50.932;5.342;2022-09-09T13:19:35;20.20;99.90
17988;DHT22;9119;50.932;5.342;2022-09-09T13:22:20;20.20;99.90
17988;DHT22;9119;50.932;5.342;2022-09-09T13:24:46;20.00;99.90
17988;DHT22;9119;50.932;5.342;2022-09-09T13:27:28;20.10;99.90
17988;DHT22;9119;50.932;5.342;2022-09-09T13:29:55;20.10;99.90
17988;DHT22;9119;50.932;5.342;2022-09-09T13:32:22;20.20;99.90
17988;DHT22;9119;50.932;5.342;2022-09-09T13:34:57;19.90;99.90
17988;DHT22;9119;50.932;5.342;2022-09-09T13:37:33;19.90;99.90
17988;DHT22;9119;50.932;5.342;2022-09-09T13:40:00;19.90;99.90
17988;DHT22;9119;50.932;5.342;2022-09-09T13:42:29;19.80;99.90
17988;DHT22;9119;50.932;5.342;2022-09-09T13:44:59;20.00;99.90
17988;DHT22;9119;50.932;5.342;2022-09-09T13:47:35;20.20;99.90
17988;DHT22;9119;50.932;5.342;2022-09-09T13:52:47;20.60;99.90
17988;DHT22;9119;50.932;5.342;2022-09-09T13:55:18;20.60;99.90
17988;DHT22;9119;50.932;5.342;2022-09-09T13:57:55;20.60;99.90
17988;DHT22;9119;50.932;5.342;2022-09-09T14:00:22;20.50;99.90
17988;DHT22;9119;50.932;5.342;2022-09-09T14:02:49;20.60;99.90
17988;DHT22;9119;50.932;5.342;2022-09-09T14:05:16;20.60;99.90
17988;DHT22;9119;50.932;5.342;2022-09-09T14:07:43;20.60;99.90
17988;DHT22;9119;50.932;5.342;2022-09-09T14:10:09;20.60;99.90
17988;DHT22;9119;50.932;5.342;2022-09-09T14:12:35;20.70;99.90
17988;DHT22;9119;50.932;5.342;2022-09-09T14:15:09;20.70;99.90
17988;DHT22;9119;50.932;5.342;2022-09-09T14:17:36;20.90;99.90
17988;DHT22;9119;50.932;5.342;2022-09-09T14:20:05;20.90;99.90
17988;DHT22;9119;50.932;5.342;2022-09-09T14:22:33;20.90;99.90
17988;DHT22;9119;50.932;5.342;2022-09-09T14:24:58;20.90;99.90
17988;DHT22;9119;50.932;5.342;2022-09-09T14:27:24;20.90;99.90
17988;DHT22;9119;50.932;5.342;2022-09-09T14:29:52;21.00;99.90
17988;DHT22;9119;50.932;5.342;2022-09-09T14:32:18;20.90;99.90
17988;DHT22;9119;50.932;5.342;2022-09-09T14:34:44;20.90;99.90
17988;DHT22;9119;50.932;5.342;2022-09-09T14:37:10;20.90;99.90
17988;DHT22;9119;50.932;5.342;2022-09-09T14:39:35;20.90;99.90
17988;DHT22;9119;50.932;5.342;2022-09-09T14:42:01;20.80;99.90
17988;DHT22;9119;50.932;5.342;2022-09-09T14:44:30;20.90;99.90
17988;DHT22;9119;50.932;5.342;2022-09-09T14:46:56;21.00;99.90
17988;DHT22;9119;50.932;5.342;2022-09-09T14:49:22;21.00;99.90
17988;DHT22;9119;50.932;5.342;2022-09-09T14:51:47;21.00;99.90
17988;DHT22;9119;50.932;5.342;2022-09-09T14:54:13;21.00;99.90
17988;DHT22;9119;50.932;5.342;2022-09-09T14:56:40;21.10;99.90
17988;DHT22;9119;50.932;5.342;2022-09-09T14:59:08;21.00;99.90
17988;DHT22;9119;50.932;5.342;2022-09-09T15:01:34;21.10;99.90
17988;DHT22;9119;50.932;5.342;2022-09-09T15:04:01;20.90;99.90
17988;DHT22;9119;50.932;5.342;2022-09-09T15:06:30;20.80;99.90
17988;DHT22;9119;50.932;5.342;2022-09-09T15:08:57;20.90;99.90
17988;DHT22;9119;50.932;5.342;2022-09-09T15:11:30;20.90;99.90
17988;DHT22;9119;50.932;5.342;2022-09-09T15:13:57;20.90;99.90
17988;DHT22;9119;50.932;5.342;2022-09-09T15:16:28;20.60;99.90
17988;DHT22;9119;50.932;5.342;2022-09-09T15:18:56;20.60;99.90
17988;DHT22;9119;50.932;5.342;2022-09-09T15:21:25;20.60;99.90
17988;DHT22;9119;50.932;5.342;2022-09-09T15:23:51;20.70;99.90
17988;DHT22;9119;50.932;5.342;2022-09-09T15:26:34;20.70;99.90
17988;DHT22;9119;50.932;5.342;2022-09-09T15:29:01;20.60;99.90
17988;DHT22;9119;50.932;5.342;2022-09-09T15:31:30;20.50;99.90
17988;DHT22;9119;50.932;5.342;2022-09-09T15:33:58;20.40;99.90
17988;DHT22;9119;50.932;5.342;2022-09-09T15:36:34;20.30;99.90
17988;DHT22;9119;50.932;5.342;2022-09-09T15:39:04;20.40;99.90
17988;DHT22;9119;50.932;5.342;2022-09-09T15:41:31;20.40;99.90
17988;DHT22;9119;50.932;5.342;2022-09-09T15:44:00;20.50;99.90
17988;DHT22;9119;50.932;5.342;2022-09-09T15:46:27;20.50;99.90
17988;DHT22;9119;50.932;5.342;2022-09-09T15:48:55;20.50;99.90
17988;DHT22;9119;50.932;5.342;2022-09-09T15:51:22;20.60;99.90
17988;DHT22;9119;50.932;5.342;2022-09-09T15:53:51;20.50;99.90
17988;DHT22;9119;50.932;5.342;2022-09-09T15:56:19;20.60;99.90
17988;DHT22;9119;50.932;5.342;2022-09-09T15:58:45;20.70;99.90
17988;DHT22;9119;50.932;5.342;2022-09-09T16:01:13;20.90;99.90
17988;DHT22;9119;50.932;5.342;2022-09-09T16:03:41;21.00;99.90
17988;DHT22;9119;50.932;5.342;2022-09-09T16:06:16;20.80;99.90
17988;DHT22;9119;50.932;5.342;2022-09-09T16:08:44;20.70;99.90
17988;DHT22;9119;50.932;5.342;2022-09-09T16:11:16;20.60;99.90
17988;DHT22;9119;50.932;5.342;2022-09-09T16:13:43;20.60;99.90
17988;DHT22;9119;50.932;5.342;2022-09-09T16:16:13;20.60;99.90
17988;DHT22;9119;50.932;5.342;2022-09-09T16:18:43;20.50;99.90
17988;DHT22;9119;50.932;5.342;2022-09-09T16:21:29;20.50;99.90
17988;DHT22;9119;50.932;5.342;2022-09-09T16:23:57;20.60;99.90
17988;DHT22;9119;50.932;5.342;2022-09-09T16:26:24;20.40;99.90
17988;DHT22;9119;50.932;5.342;2022-09-09T16:28:50;20.40;99.90
17988;DHT22;9119;50.932;5.342;2022-09-09T16:31:19;20.10;99.90
17988;DHT22;9119;50.932;5.342;2022-09-09T16:33:46;20.10;99.90
17988;DHT22;9119;50.932;5.342;2022-09-09T16:36:17;19.90;99.90
17988;DHT22;9119;50.932;5.342;2022-09-09T16:38:43;19.90;99.90
17988;DHT22;9119;50.932;5.342;2022-09-09T16:41:10;19.80;99.90
17988;DHT22;9119;50.932;5.342;2022-09-09T16:43:39;19.80;99.90
17988;DHT22;9119;50.932;5.342;2022-09-09T16:46:16;19.80;99.90
17988;DHT22;9119;50.932;5.342;2022-09-09T16:48:44;19.90;99.90
17988;DHT22;9119;50.932;5.342;2022-09-09T16:51:19;19.90;99.90
17988;DHT22;9119;50.932;5.342;2022-09-09T16:53:45;19.70;99.90
17988;DHT22;9119;50.932;5.342;2022-09-09T16:56:20;19.70;99.90
17988;DHT22;9119;50.932;5.342;2022-09-09T16:58:55;19.60;99.90
17988;DHT22;9119;50.932;5.342;2022-09-09T17:01:22;19.60;99.90
17988;DHT22;9119;50.932;5.342;2022-09-09T17:03:58;19.60;99.90
17988;DHT22;9119;50.932;5.342;2022-09-09T17:06:27;19.50;99.90
17988;DHT22;9119;50.932;5.342;2022-09-09T17:08:58;19.40;99.90
17988;DHT22;9119;50.932;5.342;2022-09-09T17:11:24;19.60;99.90
17988;DHT22;9119;50.932;5.342;2022-09-09T17:13:51;19.60;99.90
17988;DHT22;9119;50.932;5.342;2022-09-09T17:16:18;19.60;99.90
17988;DHT22;9119;50.932;5.342;2022-09-09T17:18:46;19.70;99.90
17988;DHT22;9119;50.932;5.342;2022-09-09T17:21:14;19.60;99.90
17988;DHT22;9119;50.932;5.342;2022-09-09T17:23:41;19.60;99.90
17988;DHT22;9119;50.932;5.342;2022-09-09T17:26:09;19.60;99.90
17988;DHT22;9119;50.932;5.342;2022-09-09T17:28:39;19.60;99.90
17988;DHT22;9119;50.932;5.342;2022-09-09T17:31:06;19.60;99.90
17988;DHT22;9119;50.932;5.342;2022-09-09T17:33:35;19.60;99.90
17988;DHT22;9119;50.932;5.342;2022-09-09T17:36:06;19.40;99.90
17988;DHT22;9119;50.932;5.342;2022-09-09T17:38:32;19.50;99.90
17988;DHT22;9119;50.932;5.342;2022-09-09T17:43:28;19.50;99.90
17988;DHT22;9119;50.932;5.342;2022-09-09T17:45:53;19.50;99.90
17988;DHT22;9119;50.932;5.342;2022-09-09T17:48:19;19.50;99.90
17988;DHT22;9119;50.932;5.342;2022-09-09T17:50:45;19.40;99.90
17988;DHT22;9119;50.932;5.342;2022-09-09T17:53:11;19.40;99.90
17988;DHT22;9119;50.932;5.342;2022-09-09T17:55:37;19.30;99.90
17988;DHT22;9119;50.932;5.342;2022-09-09T17:58:05;19.10;99.90
17988;DHT22;9119;50.932;5.342;2022-09-09T18:00:31;18.90;99.90
17988;DHT22;9119;50.932;5.342;2022-09-09T18:02:57;18.90;99.90
17988;DHT22;9119;50.932;5.342;2022-09-09T18:05:22;18.90;99.90
17988;DHT22;9119;50.932;5.342;2022-09-09T18:07:48;18.90;99.90
17988;DHT22;9119;50.932;5.342;2022-09-09T18:10:14;18.90;99.90